sensor_id;sensor_type;location;lat;lon;timestamp;P1;durP1;ratioP1;P2;durP2;ratioP2
10517;SDS011;5307;42.548;22.968;2022-11-18T00:00:36;86.20;;;39.25;;
10517;SDS011;5307;42.548;22.968;2022-11-18T00:03:02;83.68;;;38.42;;
10517;SDS011;5307;42.548;22.968;2022-11-18T00:05:30;87.25;;;38.47;;
10517;SDS011;5307;42.548;22.968;2022-11-18T00:07:56;88.00;;;38.10;;
10517;SDS011;5307;42.548;22.968;2022-11-18T00:10:23;131.90;;;41.58;;
10517;SDS011;5307;42.548;22.968;2022-11-18T00:12:50;105.22;;;39.13;;
10517;SDS011;5307;42.548;22.968;2022-11-18T00:15:35;157.55;;;44.80;;
10517;SDS011;5307;42.548;22.968;2022-11-18T00:18:02;141.90;;;44.78;;
10517;SDS011;5307;42.548;22.968;2022-11-18T00:20:29;166.15;;;49.25;;
10517;SDS011;5307;42.548;22.968;2022-11-18T00:22:56;177.63;;;49.65;;
10517;SDS011;5307;42.548;22.968;2022-11-18T00:25:23;197.18;;;44.38;;
10517;SDS011;5307;42.548;22.968;2022-11-18T00:28:02;172.77;;;41.08;;
10517;SDS011;5307;42.548;22.968;2022-11-18T00:30:29;144.25;;;38.92;;
10517;SDS011;5307;42.548;22.968;2022-11-18T00:32:57;150.05;;;39.88;;
10517;SDS011;5307;42.548;22.968;2022-11-18T00:35:24;128.23;;;42.13;;
10517;SDS011;5307;42.548;22.968;2022-11-18T00:37:50;153.27;;;41.97;;
10517;SDS011;5307;42.548;22.968;2022-11-18T00:40:17;124.22;;;36.83;;
10517;SDS011;5307;42.548;22.968;2022-11-18T00:42:44;134.43;;;32.97;;
10517;SDS011;5307;42.548;22.968;2022-11-18T00:45:16;112.65;;;27.98;;
10517;SDS011;5307;42.548;22.968;2022-11-18T00:47:43;90.03;;;16.80;;
10517;SDS011;5307;42.548;22.968;2022-11-18T00:50:11;64.53;;;15.70;;
10517;SDS011;5307;42.548;22.968;2022-11-18T00:52:39;103.85;;;16.20;;
10517;SDS011;5307;42.548;22.968;2022-11-18T00:55:06;105.70;;;17.08;;
10517;SDS011;5307;42.548;22.968;2022-11-18T00:57:33;95.65;;;15.65;;
10517;SDS011;5307;42.548;22.968;2022-11-18T01:00:00;106.45;;;14.35;;
10517;SDS011;5307;42.548;22.968;2022-11-18T01:02:26;68.35;;;12.45;;
10517;SDS011;5307;42.548;22.968;2022-11-18T01:04:53;113.53;;;15.95;;
10517;SDS011;5307;42.548;22.968;2022-11-18T01:07:21;90.25;;;14.00;;
10517;SDS011;5307;42.548;22.968;2022-11-18T01:09:48;90.22;;;14.32;;
10517;SDS011;5307;42.548;22.968;2022-11-18T01:12:15;95.60;;;14.38;;
10517;SDS011;5307;42.548;22.968;2022-11-18T01:14:59;307.20;;;13.48;;
10517;SDS011;5307;42.548;22.968;2022-11-18T01:17:28;460.45;;;20.95;;
10517;SDS011;5307;42.548;22.968;2022-11-18T01:19:57;315.52;;;14.95;;
10517;SDS011;5307;42.548;22.968;2022-11-18T01:22:26;164.60;;;9.98;;
10517;SDS011;5307;42.548;22.968;2022-11-18T01:24:52;116.22;;;11.48;;
10517;SDS011;5307;42.548;22.968;2022-11-18T01:27:19;200.10;;;16.05;;
10517;SDS011;5307;42.548;22.968;2022-11-18T01:29:46;161.68;;;13.63;;
10517;SDS011;5307;42.548;22.968;2022-11-18T01:32:13;208.40;;;16.13;;
10517;SDS011;5307;42.548;22.968;2022-11-18T01:34:40;170.48;;;13.32;;
10517;SDS011;5307;42.548;22.968;2022-11-18T01:37:06;181.10;;;13.93;;
10517;SDS011;5307;42.548;22.968;2022-11-18T01:39:35;247.02;;;15.23;;
10517;SDS011;5307;42.548;22.968;2022-11-18T01:42:01;151.38;;;12.90;;
10517;SDS011;5307;42.548;22.968;2022-11-18T01:47:25;149.52;;;14.05;;
10517;SDS011;5307;42.548;22.968;2022-11-18T01:49:55;148.02;;;11.30;;
10517;SDS011;5307;42.548;22.968;2022-11-18T01:52:23;145.02;;;12.95;;
10517;SDS011;5307;42.548;22.968;2022-11-18T01:54:52;119.50;;;11.30;;
10517;SDS011;5307;42.548;22.968;2022-11-18T01:57:22;90.93;;;11.55;;
10517;SDS011;5307;42.548;22.968;2022-11-18T01:59:52;125.72;;;12.48;;
10517;SDS011;5307;42.548;22.968;2022-11-18T02:02:22;96.38;;;13.15;;
10517;SDS011;5307;42.548;22.968;2022-11-18T02:04:50;123.28;;;18.13;;
10517;SDS011;5307;42.548;22.968;2022-11-18T02:07:20;81.97;;;16.52;;
10517;SDS011;5307;42.548;22.968;2022-11-18T02:09:47;67.90;;;13.80;;
10517;SDS011;5307;42.548;22.968;2022-11-18T02:12:17;87.30;;;15.55;;
10517;SDS011;5307;42.548;22.968;2022-11-18T02:14:45;65.18;;;14.77;;
10517;SDS011;5307;42.548;22.968;2022-11-18T02:24:27;77.95;;;16.33;;
10517;SDS011;5307;42.548;22.968;2022-11-18T02:30:21;74.57;;;8.80;;
10517;SDS011;5307;42.548;22.968;2022-11-18T02:32:50;68.30;;;7.90;;
10517;SDS011;5307;42.548;22.968;2022-11-18T02:35:23;87.82;;;8.20;;
10517;SDS011;5307;42.548;22.968;2022-11-18T02:37:55;92.32;;;8.98;;
10517;SDS011;5307;42.548;22.968;2022-11-18T02:40:26;133.82;;;13.25;;
10517;SDS011;5307;42.548;22.968;2022-11-18T02:42:57;116.07;;;12.05;;
10517;SDS011;5307;42.548;22.968;2022-11-18T02:45:28;149.90;;;12.85;;
10517;SDS011;5307;42.548;22.968;2022-11-18T02:47:58;74.63;;;9.52;;
10517;SDS011;5307;42.548;22.968;2022-11-18T02:50:27;88.03;;;10.23;;
10517;SDS011;5307;42.548;22.968;2022-11-18T02:52:58;103.95;;;8.80;;
10517;SDS011;5307;42.548;22.968;2022-11-18T02:55:29;65.03;;;8.88;;
10517;SDS011;5307;42.548;22.968;2022-11-18T02:57:58;107.65;;;11.48;;
10517;SDS011;5307;42.548;22.968;2022-11-18T03:00:28;82.00;;;9.90;;
10517;SDS011;5307;42.548;22.968;2022-11-18T03:02:55;76.72;;;7.60;;
10517;SDS011;5307;42.548;22.968;2022-11-18T03:05:24;115.38;;;10.95;;
10517;SDS011;5307;42.548;22.968;2022-11-18T03:07:56;120.40;;;9.70;;
10517;SDS011;5307;42.548;22.968;2022-11-18T03:10:31;106.57;;;8.15;;
10517;SDS011;5307;42.548;22.968;2022-11-18T03:13:07;87.15;;;7.53;;
10517;SDS011;5307;42.548;22.968;2022-11-18T03:15:47;98.07;;;7.65;;
10517;SDS011;5307;42.548;22.968;2022-11-18T03:18:22;120.28;;;8.35;;
10517;SDS011;5307;42.548;22.968;2022-11-18T03:20:54;106.38;;;6.88;;
10517;SDS011;5307;42.548;22.968;2022-11-18T03:23:29;80.75;;;6.32;;
10517;SDS011;5307;42.548;22.968;2022-11-18T03:26:00;142.95;;;10.65;;
10517;SDS011;5307;42.548;22.968;2022-11-18T03:28:32;94.13;;;6.90;;
10517;SDS011;5307;42.548;22.968;2022-11-18T03:31:08;60.70;;;6.78;;
10517;SDS011;5307;42.548;22.968;2022-11-18T03:33:41;125.80;;;8.18;;
10517;SDS011;5307;42.548;22.968;2022-11-18T03:36:13;111.45;;;7.82;;
10517;SDS011;5307;42.548;22.968;2022-11-18T03:38:46;84.65;;;7.65;;
10517;SDS011;5307;42.548;22.968;2022-11-18T03:41:16;79.80;;;6.95;;
10517;SDS011;5307;42.548;22.968;2022-11-18T03:43:47;73.55;;;7.05;;
10517;SDS011;5307;42.548;22.968;2022-11-18T03:46:20;89.80;;;7.13;;
10517;SDS011;5307;42.548;22.968;2022-11-18T03:48:53;80.22;;;8.15;;
10517;SDS011;5307;42.548;22.968;2022-11-18T03:51:22;103.88;;;9.27;;
10517;SDS011;5307;42.548;22.968;2022-11-18T03:53:55;122.63;;;15.65;;
10517;SDS011;5307;42.548;22.968;2022-11-18T03:56:25;162.43;;;18.92;;
10517;SDS011;5307;42.548;22.968;2022-11-18T03:58:56;148.80;;;13.93;;
10517;SDS011;5307;42.548;22.968;2022-11-18T04:01:32;105.20;;;13.18;;
10517;SDS011;5307;42.548;22.968;2022-11-18T04:04:04;46.22;;;7.07;;
10517;SDS011;5307;42.548;22.968;2022-11-18T04:06:33;112.07;;;10.00;;
10517;SDS011;5307;42.548;22.968;2022-11-18T04:09:08;72.22;;;6.13;;
10517;SDS011;5307;42.548;22.968;2022-11-18T04:11:39;90.95;;;7.65;;
10517;SDS011;5307;42.548;22.968;2022-11-18T04:14:27;60.20;;;6.45;;
10517;SDS011;5307;42.548;22.968;2022-11-18T04:16:55;68.50;;;8.10;;
10517;SDS011;5307;42.548;22.968;2022-11-18T04:19:22;78.28;;;7.53;;
10517;SDS011;5307;42.548;22.968;2022-11-18T04:21:49;77.63;;;6.05;;
10517;SDS011;5307;42.548;22.968;2022-11-18T04:24:16;64.78;;;8.55;;
10517;SDS011;5307;42.548;22.968;2022-11-18T04:26:43;66.30;;;6.05;;
10517;SDS011;5307;42.548;22.968;2022-11-18T04:29:10;59.20;;;6.68;;
10517;SDS011;5307;42.548;22.968;2022-11-18T04:31:37;53.65;;;6.85;;
10517;SDS011;5307;42.548;22.968;2022-11-18T04:34:05;65.95;;;9.98;;
10517;SDS011;5307;42.548;22.968;2022-11-18T04:36:31;47.85;;;6.95;;
10517;SDS011;5307;42.548;22.968;2022-11-18T04:38:58;64.43;;;9.57;;
10517;SDS011;5307;42.548;22.968;2022-11-18T04:41:25;46.13;;;7.38;;
10517;SDS011;5307;42.548;22.968;2022-11-18T04:44:06;53.30;;;10.40;;
10517;SDS011;5307;42.548;22.968;2022-11-18T04:46:37;72.65;;;7.22;;
10517;SDS011;5307;42.548;22.968;2022-11-18T04:49:05;43.15;;;6.90;;
10517;SDS011;5307;42.548;22.968;2022-11-18T04:51:32;48.63;;;7.15;;
10517;SDS011;5307;42.548;22.968;2022-11-18T04:53:59;50.50;;;6.95;;
10517;SDS011;5307;42.548;22.968;2022-11-18T04:56:26;78.93;;;9.00;;
10517;SDS011;5307;42.548;22.968;2022-11-18T04:58:53;60.70;;;10.10;;
10517;SDS011;5307;42.548;22.968;2022-11-18T05:01:19;84.15;;;17.58;;
10517;SDS011;5307;42.548;22.968;2022-11-18T05:03:47;100.75;;;16.35;;
10517;SDS011;5307;42.548;22.968;2022-11-18T05:15:27;60.47;;;6.85;;
10517;SDS011;5307;42.548;22.968;2022-11-18T05:17:54;60.55;;;8.00;;
10517;SDS011;5307;42.548;22.968;2022-11-18T05:20:21;53.85;;;8.15;;
10517;SDS011;5307;42.548;22.968;2022-11-18T05:22:48;54.03;;;8.57;;
10517;SDS011;5307;42.548;22.968;2022-11-18T05:25:14;56.53;;;9.60;;
10517;SDS011;5307;42.548;22.968;2022-11-18T05:27:41;62.55;;;8.32;;
10517;SDS011;5307;42.548;22.968;2022-11-18T05:30:08;61.22;;;9.18;;
10517;SDS011;5307;42.548;22.968;2022-11-18T05:32:37;43.15;;;9.07;;
10517;SDS011;5307;42.548;22.968;2022-11-18T05:35:04;54.83;;;10.88;;
10517;SDS011;5307;42.548;22.968;2022-11-18T05:37:31;55.08;;;10.88;;
10517;SDS011;5307;42.548;22.968;2022-11-18T05:39:58;66.07;;;10.93;;
10517;SDS011;5307;42.548;22.968;2022-11-18T05:42:25;85.85;;;11.05;;
10517;SDS011;5307;42.548;22.968;2022-11-18T05:45:12;78.32;;;11.70;;
10517;SDS011;5307;42.548;22.968;2022-11-18T05:47:41;57.53;;;12.10;;
10517;SDS011;5307;42.548;22.968;2022-11-18T05:50:22;52.67;;;11.55;;
10517;SDS011;5307;42.548;22.968;2022-11-18T05:52:48;87.97;;;12.77;;
10517;SDS011;5307;42.548;22.968;2022-11-18T05:55:15;66.18;;;12.02;;
10517;SDS011;5307;42.548;22.968;2022-11-18T05:57:44;47.10;;;10.43;;
10517;SDS011;5307;42.548;22.968;2022-11-18T06:00:12;59.35;;;12.68;;
10517;SDS011;5307;42.548;22.968;2022-11-18T06:02:41;107.80;;;13.38;;
10517;SDS011;5307;42.548;22.968;2022-11-18T06:05:08;73.82;;;11.10;;
10517;SDS011;5307;42.548;22.968;2022-11-18T06:07:37;96.72;;;11.93;;
10517;SDS011;5307;42.548;22.968;2022-11-18T06:10:06;57.78;;;9.80;;
10517;SDS011;5307;42.548;22.968;2022-11-18T06:12:39;77.32;;;12.07;;
10517;SDS011;5307;42.548;22.968;2022-11-18T06:15:11;85.32;;;10.23;;
10517;SDS011;5307;42.548;22.968;2022-11-18T06:17:44;126.28;;;12.02;;
10517;SDS011;5307;42.548;22.968;2022-11-18T06:20:15;76.60;;;10.90;;
10517;SDS011;5307;42.548;22.968;2022-11-18T06:22:43;73.22;;;10.38;;
10517;SDS011;5307;42.548;22.968;2022-11-18T06:25:09;53.83;;;8.02;;
10517;SDS011;5307;42.548;22.968;2022-11-18T06:27:36;60.78;;;11.13;;
10517;SDS011;5307;42.548;22.968;2022-11-18T06:30:03;76.60;;;10.50;;
10517;SDS011;5307;42.548;22.968;2022-11-18T06:32:31;41.15;;;10.35;;
10517;SDS011;5307;42.548;22.968;2022-11-18T06:34:59;48.25;;;11.95;;
10517;SDS011;5307;42.548;22.968;2022-11-18T06:37:26;55.60;;;11.30;;
10517;SDS011;5307;42.548;22.968;2022-11-18T06:39:53;59.55;;;13.50;;
10517;SDS011;5307;42.548;22.968;2022-11-18T06:42:19;372.75;;;30.10;;
10517;SDS011;5307;42.548;22.968;2022-11-18T06:45:00;301.40;;;27.65;;
10517;SDS011;5307;42.548;22.968;2022-11-18T06:47:27;288.65;;;23.45;;
10517;SDS011;5307;42.548;22.968;2022-11-18T06:49:53;164.80;;;17.85;;
10517;SDS011;5307;42.548;22.968;2022-11-18T06:52:21;175.18;;;20.38;;
10517;SDS011;5307;42.548;22.968;2022-11-18T06:54:49;69.10;;;14.20;;
10517;SDS011;5307;42.548;22.968;2022-11-18T06:57:15;147.98;;;20.45;;
10517;SDS011;5307;42.548;22.968;2022-11-18T06:59:42;124.40;;;14.57;;
10517;SDS011;5307;42.548;22.968;2022-11-18T07:02:09;182.50;;;17.75;;
10517;SDS011;5307;42.548;22.968;2022-11-18T07:04:38;125.07;;;15.52;;
10517;SDS011;5307;42.548;22.968;2022-11-18T07:07:05;138.93;;;15.20;;
10517;SDS011;5307;42.548;22.968;2022-11-18T07:09:34;179.93;;;16.25;;
10517;SDS011;5307;42.548;22.968;2022-11-18T07:12:01;107.03;;;14.98;;
10517;SDS011;5307;42.548;22.968;2022-11-18T07:14:28;90.32;;;13.88;;
10517;SDS011;5307;42.548;22.968;2022-11-18T07:16:55;146.68;;;18.42;;
10517;SDS011;5307;42.548;22.968;2022-11-18T07:19:22;73.00;;;12.35;;
10517;SDS011;5307;42.548;22.968;2022-11-18T07:21:49;123.68;;;13.88;;
10517;SDS011;5307;42.548;22.968;2022-11-18T07:24:15;85.35;;;12.02;;
10517;SDS011;5307;42.548;22.968;2022-11-18T07:26:44;63.75;;;12.18;;
10517;SDS011;5307;42.548;22.968;2022-11-18T07:29:11;87.38;;;12.77;;
10517;SDS011;5307;42.548;22.968;2022-11-18T07:31:38;132.60;;;12.85;;
10517;SDS011;5307;42.548;22.968;2022-11-18T07:34:05;74.63;;;12.27;;
10517;SDS011;5307;42.548;22.968;2022-11-18T07:36:32;66.75;;;10.82;;
10517;SDS011;5307;42.548;22.968;2022-11-18T07:38:59;70.82;;;11.85;;
10517;SDS011;5307;42.548;22.968;2022-11-18T07:41:27;112.90;;;11.45;;
10517;SDS011;5307;42.548;22.968;2022-11-18T07:43:57;47.42;;;13.15;;
10517;SDS011;5307;42.548;22.968;2022-11-18T07:46:25;71.63;;;13.35;;
10517;SDS011;5307;42.548;22.968;2022-11-18T07:48:53;48.10;;;13.40;;
10517;SDS011;5307;42.548;22.968;2022-11-18T07:51:23;109.57;;;13.60;;
10517;SDS011;5307;42.548;22.968;2022-11-18T07:53:51;124.65;;;14.93;;
10517;SDS011;5307;42.548;22.968;2022-11-18T07:56:18;94.63;;;14.48;;
10517;SDS011;5307;42.548;22.968;2022-11-18T07:58:46;114.28;;;12.75;;
10517;SDS011;5307;42.548;22.968;2022-11-18T08:07:46;103.30;;;15.65;;
10517;SDS011;5307;42.548;22.968;2022-11-18T08:10:13;74.53;;;15.00;;
10517;SDS011;5307;42.548;22.968;2022-11-18T08:12:41;126.20;;;13.98;;
10517;SDS011;5307;42.548;22.968;2022-11-18T08:15:08;116.10;;;15.05;;
10517;SDS011;5307;42.548;22.968;2022-11-18T08:17:35;115.53;;;17.38;;
10517;SDS011;5307;42.548;22.968;2022-11-18T08:20:03;90.03;;;16.92;;
10517;SDS011;5307;42.548;22.968;2022-11-18T08:22:31;56.78;;;15.15;;
10517;SDS011;5307;42.548;22.968;2022-11-18T08:24:59;60.63;;;20.17;;
10517;SDS011;5307;42.548;22.968;2022-11-18T08:27:26;47.50;;;18.38;;
10517;SDS011;5307;42.548;22.968;2022-11-18T08:29:52;40.40;;;17.52;;
10517;SDS011;5307;42.548;22.968;2022-11-18T08:32:19;42.97;;;15.55;;
10517;SDS011;5307;42.548;22.968;2022-11-18T08:34:46;29.90;;;15.00;;
10517;SDS011;5307;42.548;22.968;2022-11-18T08:37:13;36.80;;;15.90;;
10517;SDS011;5307;42.548;22.968;2022-11-18T08:39:40;29.85;;;13.30;;
10517;SDS011;5307;42.548;22.968;2022-11-18T08:42:08;35.60;;;16.83;;
10517;SDS011;5307;42.548;22.968;2022-11-18T08:44:35;22.52;;;12.07;;
10517;SDS011;5307;42.548;22.968;2022-11-18T08:47:02;23.35;;;11.65;;
10517;SDS011;5307;42.548;22.968;2022-11-18T08:49:29;27.73;;;12.38;;
10517;SDS011;5307;42.548;22.968;2022-11-18T08:51:56;19.88;;;11.30;;
10517;SDS011;5307;42.548;22.968;2022-11-18T08:54:23;22.73;;;11.90;;
10517;SDS011;5307;42.548;22.968;2022-11-18T08:56:49;24.75;;;12.68;;
10517;SDS011;5307;42.548;22.968;2022-11-18T08:59:18;28.40;;;14.43;;
10517;SDS011;5307;42.548;22.968;2022-11-18T09:01:45;20.65;;;13.00;;
10517;SDS011;5307;42.548;22.968;2022-11-18T09:04:12;30.48;;;13.50;;
10517;SDS011;5307;42.548;22.968;2022-11-18T09:06:39;24.15;;;12.35;;
10517;SDS011;5307;42.548;22.968;2022-11-18T09:09:06;21.30;;;12.18;;
10517;SDS011;5307;42.548;22.968;2022-11-18T09:11:33;25.23;;;14.15;;
10517;SDS011;5307;42.548;22.968;2022-11-18T09:14:01;25.70;;;12.90;;
10517;SDS011;5307;42.548;22.968;2022-11-18T09:16:30;29.10;;;13.55;;
10517;SDS011;5307;42.548;22.968;2022-11-18T09:18:58;21.40;;;12.18;;
10517;SDS011;5307;42.548;22.968;2022-11-18T09:21:25;25.55;;;14.25;;
10517;SDS011;5307;42.548;22.968;2022-11-18T09:23:52;32.63;;;16.05;;
10517;SDS011;5307;42.548;22.968;2022-11-18T09:26:19;25.17;;;16.00;;
10517;SDS011;5307;42.548;22.968;2022-11-18T09:28:48;30.25;;;17.02;;
10517;SDS011;5307;42.548;22.968;2022-11-18T09:31:17;25.90;;;15.10;;
10517;SDS011;5307;42.548;22.968;2022-11-18T09:33:45;28.17;;;15.30;;
10517;SDS011;5307;42.548;22.968;2022-11-18T09:36:15;25.88;;;14.65;;
10517;SDS011;5307;42.548;22.968;2022-11-18T09:38:43;26.02;;;14.02;;
10517;SDS011;5307;42.548;22.968;2022-11-18T09:44:07;19.52;;;12.95;;
10517;SDS011;5307;42.548;22.968;2022-11-18T09:46:46;18.33;;;12.05;;
10517;SDS011;5307;42.548;22.968;2022-11-18T09:49:24;18.67;;;12.30;;
10517;SDS011;5307;42.548;22.968;2022-11-18T09:51:52;37.42;;;14.13;;
10517;SDS011;5307;42.548;22.968;2022-11-18T09:54:20;22.55;;;14.02;;
10517;SDS011;5307;42.548;22.968;2022-11-18T09:56:50;28.23;;;14.48;;
10517;SDS011;5307;42.548;22.968;2022-11-18T09:59:20;29.88;;;17.40;;
10517;SDS011;5307;42.548;22.968;2022-11-18T10:01:49;25.23;;;14.85;;
10517;SDS011;5307;42.548;22.968;2022-11-18T10:04:19;35.60;;;20.48;;
10517;SDS011;5307;42.548;22.968;2022-11-18T10:06:48;37.63;;;19.73;;
10517;SDS011;5307;42.548;22.968;2022-11-18T10:09:24;31.83;;;15.90;;
10517;SDS011;5307;42.548;22.968;2022-11-18T10:12:06;31.85;;;17.83;;
10517;SDS011;5307;42.548;22.968;2022-11-18T10:14:53;27.48;;;15.93;;
10517;SDS011;5307;42.548;22.968;2022-11-18T10:17:34;26.00;;;14.82;;
10517;SDS011;5307;42.548;22.968;2022-11-18T10:20:27;26.27;;;15.70;;
10517;SDS011;5307;42.548;22.968;2022-11-18T10:23:03;26.83;;;14.90;;
10517;SDS011;5307;42.548;22.968;2022-11-18T10:25:37;30.30;;;15.50;;
10517;SDS011;5307;42.548;22.968;2022-11-18T10:28:12;26.98;;;17.25;;
10517;SDS011;5307;42.548;22.968;2022-11-18T10:30:41;30.33;;;20.10;;
10517;SDS011;5307;42.548;22.968;2022-11-18T10:33:16;15.15;;;10.98;;
10517;SDS011;5307;42.548;22.968;2022-11-18T10:36:07;13.65;;;10.30;;
10517;SDS011;5307;42.548;22.968;2022-11-18T10:38:45;15.98;;;8.45;;
10517;SDS011;5307;42.548;22.968;2022-11-18T10:41:13;11.05;;;7.75;;
10517;SDS011;5307;42.548;22.968;2022-11-18T10:43:46;10.57;;;6.85;;
10517;SDS011;5307;42.548;22.968;2022-11-18T10:46:16;17.38;;;8.25;;
10517;SDS011;5307;42.548;22.968;2022-11-18T10:48:45;14.07;;;7.05;;
10517;SDS011;5307;42.548;22.968;2022-11-18T10:51:22;11.77;;;5.50;;
10517;SDS011;5307;42.548;22.968;2022-11-18T10:53:51;7.05;;;4.88;;
10517;SDS011;5307;42.548;22.968;2022-11-18T10:56:42;8.23;;;5.47;;
10517;SDS011;5307;42.548;22.968;2022-11-18T10:59:11;11.18;;;5.25;;
10517;SDS011;5307;42.548;22.968;2022-11-18T11:08:47;10.13;;;6.78;;
10517;SDS011;5307;42.548;22.968;2022-11-18T11:11:20;9.48;;;6.95;;
10517;SDS011;5307;42.548;22.968;2022-11-18T11:13:51;9.48;;;5.85;;
10517;SDS011;5307;42.548;22.968;2022-11-18T11:16:20;12.40;;;5.47;;
10517;SDS011;5307;42.548;22.968;2022-11-18T11:18:49;10.07;;;6.45;;
10517;SDS011;5307;42.548;22.968;2022-11-18T11:21:21;8.13;;;4.75;;
10517;SDS011;5307;42.548;22.968;2022-11-18T11:23:52;7.45;;;4.65;;
10517;SDS011;5307;42.548;22.968;2022-11-18T11:26:21;8.82;;;4.25;;
10517;SDS011;5307;42.548;22.968;2022-11-18T11:28:55;9.50;;;4.32;;
10517;SDS011;5307;42.548;22.968;2022-11-18T11:31:28;8.27;;;4.88;;
10517;SDS011;5307;42.548;22.968;2022-11-18T11:34:03;7.88;;;4.75;;
10517;SDS011;5307;42.548;22.968;2022-11-18T11:36:42;8.77;;;5.55;;
10517;SDS011;5307;42.548;22.968;2022-11-18T11:39:24;18.75;;;13.02;;
10517;SDS011;5307;42.548;22.968;2022-11-18T11:42:04;12.48;;;7.30;;
10517;SDS011;5307;42.548;22.968;2022-11-18T11:44:43;13.43;;;6.57;;
10517;SDS011;5307;42.548;22.968;2022-11-18T11:47:22;14.63;;;6.90;;
10517;SDS011;5307;42.548;22.968;2022-11-18T11:50:17;10.88;;;5.60;;
10517;SDS011;5307;42.548;22.968;2022-11-18T11:52:50;20.48;;;9.55;;
10517;SDS011;5307;42.548;22.968;2022-11-18T11:55:29;15.50;;;8.20;;
10517;SDS011;5307;42.548;22.968;2022-11-18T11:58:06;14.63;;;9.25;;
10517;SDS011;5307;42.548;22.968;2022-11-18T12:00:44;17.83;;;8.50;;
10517;SDS011;5307;42.548;22.968;2022-11-18T12:03:22;13.18;;;8.30;;
10517;SDS011;5307;42.548;22.968;2022-11-18T12:06:02;17.13;;;9.60;;
10517;SDS011;5307;42.548;22.968;2022-11-18T12:08:29;18.70;;;9.40;;
10517;SDS011;5307;42.548;22.968;2022-11-18T12:10:59;14.35;;;8.75;;
10517;SDS011;5307;42.548;22.968;2022-11-18T12:13:35;13.13;;;7.85;;
10517;SDS011;5307;42.548;22.968;2022-11-18T12:16:14;13.02;;;5.05;;
10517;SDS011;5307;42.548;22.968;2022-11-18T12:18:52;8.57;;;4.45;;
10517;SDS011;5307;42.548;22.968;2022-11-18T12:24:26;8.43;;;4.65;;
10517;SDS011;5307;42.548;22.968;2022-11-18T12:26:57;6.63;;;4.93;;
10517;SDS011;5307;42.548;22.968;2022-11-18T12:29:32;7.38;;;5.63;;
10517;SDS011;5307;42.548;22.968;2022-11-18T12:35:21;11.70;;;6.63;;
10517;SDS011;5307;42.548;22.968;2022-11-18T12:38:01;9.93;;;6.35;;
10517;SDS011;5307;42.548;22.968;2022-11-18T12:40:38;10.15;;;5.90;;
10517;SDS011;5307;42.548;22.968;2022-11-18T12:55:15;13.10;;;7.38;;
10517;SDS011;5307;42.548;22.968;2022-11-18T12:57:46;20.35;;;11.05;;
10517;SDS011;5307;42.548;22.968;2022-11-18T13:02:58;15.00;;;8.00;;
10517;SDS011;5307;42.548;22.968;2022-11-18T13:05:27;9.52;;;4.30;;
10517;SDS011;5307;42.548;22.968;2022-11-18T13:07:56;11.40;;;4.38;;
10517;SDS011;5307;42.548;22.968;2022-11-18T13:10:45;8.18;;;4.38;;
10517;SDS011;5307;42.548;22.968;2022-11-18T13:13:19;6.80;;;3.70;;
10517;SDS011;5307;42.548;22.968;2022-11-18T13:15:50;5.28;;;3.22;;
10517;SDS011;5307;42.548;22.968;2022-11-18T13:18:46;5.28;;;3.70;;
10517;SDS011;5307;42.548;22.968;2022-11-18T13:21:19;9.18;;;4.25;;
10517;SDS011;5307;42.548;22.968;2022-11-18T13:24:09;8.48;;;4.03;;
10517;SDS011;5307;42.548;22.968;2022-11-18T13:26:38;8.13;;;4.20;;
10517;SDS011;5307;42.548;22.968;2022-11-18T13:32:05;8.38;;;5.03;;
10517;SDS011;5307;42.548;22.968;2022-11-18T13:34:48;8.82;;;5.05;;
10517;SDS011;5307;42.548;22.968;2022-11-18T13:37:17;15.20;;;5.30;;
10517;SDS011;5307;42.548;22.968;2022-11-18T13:39:46;12.32;;;5.75;;
10517;SDS011;5307;42.548;22.968;2022-11-18T13:42:15;8.00;;;4.60;;
10517;SDS011;5307;42.548;22.968;2022-11-18T13:44:45;10.57;;;7.25;;
10517;SDS011;5307;42.548;22.968;2022-11-18T13:47:22;13.93;;;6.97;;
10517;SDS011;5307;42.548;22.968;2022-11-18T13:49:56;12.20;;;6.40;;
10517;SDS011;5307;42.548;22.968;2022-11-18T13:52:37;13.65;;;5.97;;
10517;SDS011;5307;42.548;22.968;2022-11-18T13:55:08;9.35;;;6.38;;
10517;SDS011;5307;42.548;22.968;2022-11-18T13:57:44;7.60;;;5.22;;
10517;SDS011;5307;42.548;22.968;2022-11-18T14:07:29;14.07;;;9.50;;
10517;SDS011;5307;42.548;22.968;2022-11-18T14:09:58;12.95;;;8.10;;
10517;SDS011;5307;42.548;22.968;2022-11-18T14:12:26;9.07;;;6.35;;
10517;SDS011;5307;42.548;22.968;2022-11-18T14:17:52;12.00;;;5.88;;
10517;SDS011;5307;42.548;22.968;2022-11-18T14:20:21;14.77;;;6.32;;
10517;SDS011;5307;42.548;22.968;2022-11-18T14:22:51;13.48;;;7.07;;
10517;SDS011;5307;42.548;22.968;2022-11-18T14:25:21;13.52;;;6.65;;
10517;SDS011;5307;42.548;22.968;2022-11-18T14:27:52;11.27;;;6.00;;
10517;SDS011;5307;42.548;22.968;2022-11-18T14:30:27;12.80;;;6.18;;
10517;SDS011;5307;42.548;22.968;2022-11-18T14:33:17;7.65;;;4.60;;
10517;SDS011;5307;42.548;22.968;2022-11-18T14:35:50;15.55;;;4.85;;
10517;SDS011;5307;42.548;22.968;2022-11-18T14:38:21;10.38;;;5.15;;
10517;SDS011;5307;42.548;22.968;2022-11-18T14:40:54;14.93;;;5.18;;
10517;SDS011;5307;42.548;22.968;2022-11-18T14:43:22;12.77;;;4.75;;
10517;SDS011;5307;42.548;22.968;2022-11-18T14:45:51;11.40;;;5.80;;
10517;SDS011;5307;42.548;22.968;2022-11-18T14:48:20;16.95;;;7.78;;
10517;SDS011;5307;42.548;22.968;2022-11-18T14:50:48;13.32;;;7.10;;
10517;SDS011;5307;42.548;22.968;2022-11-18T14:53:16;19.40;;;7.22;;
10517;SDS011;5307;42.548;22.968;2022-11-18T14:55:46;26.52;;;16.00;;
10517;SDS011;5307;42.548;22.968;2022-11-18T14:58:15;25.40;;;16.52;;
10517;SDS011;5307;42.548;22.968;2022-11-18T15:00:43;21.58;;;14.80;;
10517;SDS011;5307;42.548;22.968;2022-11-18T15:03:11;21.85;;;12.55;;
10517;SDS011;5307;42.548;22.968;2022-11-18T15:05:38;16.20;;;10.43;;
10517;SDS011;5307;42.548;22.968;2022-11-18T15:08:06;20.58;;;9.25;;
10517;SDS011;5307;42.548;22.968;2022-11-18T15:10:33;13.95;;;8.95;;
10517;SDS011;5307;42.548;22.968;2022-11-18T15:13:04;12.70;;;6.97;;
10517;SDS011;5307;42.548;22.968;2022-11-18T15:15:31;12.35;;;6.05;;
10517;SDS011;5307;42.548;22.968;2022-11-18T15:17:58;11.70;;;7.63;;
10517;SDS011;5307;42.548;22.968;2022-11-18T15:20:26;14.50;;;7.47;;
10517;SDS011;5307;42.548;22.968;2022-11-18T15:22:53;12.15;;;6.75;;
10517;SDS011;5307;42.548;22.968;2022-11-18T15:25:20;10.50;;;6.95;;
10517;SDS011;5307;42.548;22.968;2022-11-18T15:27:46;15.05;;;7.57;;
10517;SDS011;5307;42.548;22.968;2022-11-18T15:30:14;9.90;;;6.13;;
10517;SDS011;5307;42.548;22.968;2022-11-18T15:32:42;10.90;;;6.57;;
10517;SDS011;5307;42.548;22.968;2022-11-18T15:35:11;11.70;;;7.80;;
10517;SDS011;5307;42.548;22.968;2022-11-18T15:37:39;12.40;;;7.40;;
10517;SDS011;5307;42.548;22.968;2022-11-18T15:40:06;12.65;;;8.32;;
10517;SDS011;5307;42.548;22.968;2022-11-18T15:42:35;12.30;;;7.55;;
10517;SDS011;5307;42.548;22.968;2022-11-18T15:45:02;11.40;;;8.32;;
10517;SDS011;5307;42.548;22.968;2022-11-18T15:47:32;13.90;;;9.40;;
10517;SDS011;5307;42.548;22.968;2022-11-18T15:49:59;15.77;;;7.28;;
10517;SDS011;5307;42.548;22.968;2022-11-18T15:52:25;10.35;;;6.13;;
10517;SDS011;5307;42.548;22.968;2022-11-18T15:54:52;12.90;;;7.03;;
10517;SDS011;5307;42.548;22.968;2022-11-18T15:57:19;12.68;;;7.13;;